Doverlandia, Brazil
Current Conditions -  °F | °C
As of 1:00 PM on Wednesday 22 Oct 2014 (Local Time) from SBGO Reporting Station
Broken Clouds Broken Clouds  
Wind Chill: 90°   Ceiling: 4000
Heat Index: 90°   Visibility: 6mi
Dew Point: 52°   Wind: 9mph
Humidity: 27%   Direction: 30°NNE
Pressure: 30.03"   Gusts: NA
Location:  16.72°S, 52.32°W
Report Text: SBGO 221500Z 03008KT 9999 BKN040 32/11 Q1017
Loading
Personal Weather Stations






























Interactive Weather Map
Tropical Storm Tracking
New forecast layout! Learn more

10-Day Weather Forecast

Advertisements
Track Severe Weather on mobile